Aviation Digital Data Service (ADDS)

Output produced by METARs form (1110 UTC 13 December 2017)
found at http://www.aviationweather.gov/adds/metars/
 
FMCH 131100Z 30005KT 270V340 9999 FEW020TCU SCT024 31/26 Q1012 NOSIG
FMCH 131100Z 1312/1418 32010KT 9999 FEW015 BKN025 
     PROB40 
     TEMPO 1312/1316 TS SHRA BKN015CB 
     BECMG 1316/1318 08004KT 
     BECMG 1404/1406 30010KT